Albert, New Mexico
Current Conditions -  °F | °C
As of 7:53 PM on Monday 20 Oct 2014 (Local Time) from KTCC Reporting Station
Clear Clear  
Wind Chill: 63°   Ceiling: Unl
Heat Index: 63°   Visibility: 10mi
Dew Point: 52°   Wind: 8mph
Humidity: 67%   Direction: 230°SW
Pressure: 30.11"   Gusts: NA
Location:  35.7181°N, 103.591°W
Report Text: KTCC 210153Z AUTO 23007KT 10SM CLR 17/11 A3011 RMK AO2 SLP163 T01720111
Loading
Personal Weather Stations






























Interactive Weather Map New forecast layout! Learn more

10-Day Weather Forecast

Advertisements
Track Severe Weather on mobile